Time;durP1;ratioP1;P1;durP2;ratioP2;P2;SDS_P1;SDS_P2;PMS_P1;PMS_P2;Temp;Humidity;BMP_temperature;BMP_pressure;BME280_temperature;BME280_humidity;BME280_pressure;Samples;Min_cycle;Max_cycle;Signal;HPM_P1;HPM_P2
2023/09/29 00:01:55;;;;;;;13.15;5.43;;;;;;;16.26;100.00;101436.25;5018601;28;20041;-77
2023/09/29 00:04:21;;;;;;;14.90;6.50;;;;;;;16.31;100.00;101433.00;5019901;28;20032;-77
2023/09/29 00:06:47;;;;;;;15.73;4.75;;;;;;;16.37;100.00;101425.75;5020823;28;20040;-77
2023/09/29 00:09:12;;;;;;;17.35;5.30;;;;;;;16.34;100.00;101431.38;5032693;28;20108;-77
2023/09/29 00:11:37;;;;;;;13.60;5.28;;;;;;;16.35;100.00;101428.16;5026899;28;20037;-76
2023/09/29 00:14:03;;;;;;;12.50;5.53;;;;;;;16.37;100.00;101424.94;5019433;28;20029;-77
2023/09/29 00:16:28;;;;;;;15.70;6.75;;;;;;;16.33;100.00;101418.47;5017243;28;20075;-77
2023/09/29 00:18:55;;;;;;;19.17;6.32;;;;;;;16.34;100.00;101414.44;5031398;28;20029;-77
2023/09/29 00:21:20;;;;;;;14.93;5.72;;;;;;;16.28;100.00;101411.22;5018899;28;20037;-77
2023/09/29 00:23:45;;;;;;;14.20;5.03;;;;;;;16.37;100.00;101420.09;5037642;28;20029;-77
2023/09/29 00:26:11;;;;;;;14.90;5.60;;;;;;;16.29;100.00;101412.81;5030985;28;20052;-76
2023/09/29 00:28:36;;;;;;;14.15;5.18;;;;;;;16.34;100.00;101420.91;5023529;28;20040;-77
2023/09/29 00:31:04;;;;;;;15.05;4.85;;;;;;;16.35;100.00;101425.34;5026645;28;20528;-76
2023/09/29 00:33:30;;;;;;;15.25;5.05;;;;;;;16.35;100.00;101416.84;5031266;28;20028;-77
2023/09/29 00:35:58;;;;;;;14.40;4.45;;;;;;;16.36;100.00;101426.13;5033692;28;20035;-77
2023/09/29 00:38:24;;;;;;;10.52;5.28;;;;;;;16.40;100.00;101426.94;5028877;28;20037;-74
2023/09/29 00:40:49;;;;;;;14.88;5.93;;;;;;;16.30;100.00;101422.94;5016840;28;20026;-75
2023/09/29 00:43:15;;;;;;;16.17;4.22;;;;;;;16.28;100.00;101425.34;5025224;28;20040;-75
2023/09/29 00:45:40;;;;;;;15.27;5.18;;;;;;;16.28;100.00;101422.53;5039141;28;20439;-75
2023/09/29 00:48:08;;;;;;;14.65;5.63;;;;;;;16.31;100.00;101421.69;5033060;28;20040;-75
2023/09/29 00:50:35;;;;;;;13.73;4.95;;;;;;;16.35;100.00;101419.69;5040701;28;20457;-75
2023/09/29 00:53:09;;;;;;;11.15;4.45;;;;;;;16.38;100.00;101416.06;5029253;28;20064;-75
2023/09/29 00:55:36;;;;;;;16.30;4.35;;;;;;;16.38;100.00;101410.41;5016755;28;20661;-75
2023/09/29 00:58:02;;;;;;;11.57;4.07;;;;;;;16.38;100.00;101413.25;5016222;28;20466;-75
2023/09/29 01:02:54;;;;;;;12.10;4.07;;;;;;;16.38;100.00;101403.94;5029262;28;20029;-75
2023/09/29 01:05:20;;;;;;;18.00;4.25;;;;;;;16.43;100.00;101412.03;5020794;28;20498;-75
2023/09/29 01:07:46;;;;;;;16.70;4.88;;;;;;;16.41;100.00;101398.28;5024564;28;20117;-75
2023/09/29 01:10:13;;;;;;;12.40;4.72;;;;;;;16.36;100.00;101378.94;5024764;28;20033;-75
2023/09/29 01:12:39;;;;;;;8.63;3.72;;;;;;;16.40;100.00;101388.22;5036740;28;20041;-75
2023/09/29 01:15:05;;;;;;;15.57;4.10;;;;;;;16.39;100.00;101389.41;5029114;28;20393;-75
2023/09/29 01:17:31;;;;;;;11.88;4.05;;;;;;;16.36;100.00;101381.75;5035655;28;20112;-75
2023/09/29 01:19:56;;;;;;;11.07;3.42;;;;;;;16.36;100.00;101378.94;5024875;28;20017;-75
2023/09/29 01:22:22;;;;;;;16.90;4.38;;;;;;;16.39;100.00;101375.28;5022762;28;20040;-75
2023/09/29 01:24:47;;;;;;;12.60;3.40;;;;;;;16.41;100.00;101372.06;5027327;28;20025;-75
2023/09/29 01:27:13;;;;;;;11.65;4.30;;;;;;;16.38;100.00;101373.69;5036331;28;20041;-75
2023/09/29 01:29:42;;;;;;;8.38;3.63;;;;;;;16.38;100.00;101370.03;5034738;28;20042;-75
2023/09/29 01:32:12;;;;;;;12.98;4.05;;;;;;;16.40;100.00;101373.25;5027417;28;20026;-75
2023/09/29 01:34:37;;;;;;;17.23;5.32;;;;;;;16.38;100.00;101370.84;5017578;28;20037;-75
2023/09/29 01:37:03;;;;;;;10.07;3.40;;;;;;;16.37;100.00;101369.22;5033322;28;20033;-75
2023/09/29 01:39:30;;;;;;;11.20;4.53;;;;;;;16.40;100.00;101362.78;5025993;28;20032;-75
2023/09/29 01:41:56;;;;;;;11.23;3.03;;;;;;;16.38;100.00;101365.22;5022420;28;20033;-75
2023/09/29 01:44:21;;;;;;;12.27;3.67;;;;;;;16.40;100.00;101356.31;5029352;28;20539;-75
2023/09/29 01:46:49;;;;;;;8.32;3.60;;;;;;;16.42;100.00;101348.22;5032280;28;20030;-75
2023/09/29 01:49:17;;;;;;;10.43;3.17;;;;;;;16.45;100.00;101350.25;5023926;28;20484;-74
2023/09/29 01:51:44;;;;;;;12.00;4.47;;;;;;;16.45;100.00;101345.41;5038481;28;20048;-71
2023/09/29 01:54:09;;;;;;;16.02;4.53;;;;;;;16.41;100.00;101347.44;5024333;28;20307;-74
2023/09/29 01:56:35;;;;;;;12.63;4.20;;;;;;;16.40;100.00;101326.06;5016422;28;20026;-72
2023/09/29 01:59:01;;;;;;;13.02;4.15;;;;;;;16.41;100.00;101333.31;5028418;28;20029;-75
2023/09/29 02:01:26;;;;;;;15.73;3.38;;;;;;;16.42;100.00;101346.25;5021662;28;20478;-75
2023/09/29 02:03:51;;;;;;;17.30;3.58;;;;;;;16.41;100.00;101355.09;5018138;28;20029;-75
2023/09/29 02:06:17;;;;;;;11.73;3.53;;;;;;;16.40;100.00;101357.13;5027609;28;20102;-75
2023/09/29 02:08:42;;;;;;;14.80;4.68;;;;;;;16.42;100.00;101357.53;5030891;28;20029;-75
2023/09/29 02:11:08;;;;;;;10.55;3.30;;;;;;;16.45;100.00;101356.72;5036038;28;20472;-75
2023/09/29 02:13:34;;;;;;;9.85;3.63;;;;;;;16.40;100.00;101348.66;5018390;28;20398;-75
2023/09/29 02:16:00;;;;;;;9.68;4.40;;;;;;;16.39;100.00;101349.84;5019845;28;20041;-75
2023/09/29 02:18:27;;;;;;;8.25;2.85;;;;;;;16.44;100.00;101340.97;5028390;28;20044;-75
2023/09/29 02:20:55;;;;;;;12.73;3.97;;;;;;;16.43;100.00;101345.00;5017282;28;20038;-75
2023/09/29 02:23:22;;;;;;;10.25;3.60;;;;;;;16.43;100.00;101336.53;5023495;28;20048;-75
2023/09/29 02:25:48;;;;;;;11.45;3.58;;;;;;;16.40;100.00;101334.53;5016189;28;20042;-75
2023/09/29 02:28:14;;;;;;;13.55;4.20;;;;;;;16.34;100.00;101336.16;5026102;28;20060;-75
2023/09/29 02:30:40;;;;;;;11.70;3.60;;;;;;;16.40;100.00;101334.53;5036295;28;20492;-75
2023/09/29 02:33:06;;;;;;;15.05;4.20;;;;;;;16.39;100.00;101315.16;5023151;28;20037;-75
2023/09/29 02:35:31;;;;;;;11.05;3.67;;;;;;;16.39;100.00;101313.13;5029618;28;20504;-75
2023/09/29 02:37:57;;;;;;;11.32;3.53;;;;;;;16.38;100.00;101311.53;5020816;28;20060;-75
2023/09/29 02:40:23;;;;;;;16.58;5.15;;;;;;;16.43;100.00;101310.31;5010158;28;20116;-75
2023/09/29 02:42:49;;;;;;;9.05;3.65;;;;;;;16.43;100.00;101307.47;5022425;28;20029;-75
2023/09/29 02:45:15;;;;;;;9.95;3.70;;;;;;;16.48;100.00;101300.59;5023897;28;20069;-75
2023/09/29 02:47:42;;;;;;;7.60;3.67;;;;;;;16.48;100.00;101300.59;5026242;28;20027;-75
2023/09/29 02:50:12;;;;;;;10.23;3.60;;;;;;;16.40;100.00;101300.63;5028574;28;20030;-75
2023/09/29 02:52:38;;;;;;;11.48;3.83;;;;;;;16.45;100.00;101293.75;5021233;28;20064;-75
2023/09/29 02:55:05;;;;;;;7.22;3.00;;;;;;;16.45;100.00;101280.41;5015442;28;20100;-75
2023/09/29 02:57:30;;;;;;;13.02;3.67;;;;;;;16.46;100.00;101287.69;5019589;28;20053;-75
2023/09/29 02:59:57;;;;;;;13.50;3.42;;;;;;;16.40;100.00;101286.50;5021944;28;20069;-73
2023/09/29 03:02:22;;;;;;;10.30;3.80;;;;;;;16.41;100.00;101278.81;5026670;28;20120;-72
2023/09/29 03:04:48;;;;;;;16.25;4.43;;;;;;;16.45;100.00;101274.78;5020536;28;20499;-72
2023/09/29 03:07:14;;;;;;;12.75;3.47;;;;;;;16.45;100.00;101268.31;5029790;28;20072;-73
2023/09/29 03:09:41;;;;;;;9.55;4.38;;;;;;;16.46;100.00;101259.44;5027195;28;20035;-73
2023/09/29 03:12:07;;;;;;;11.38;5.32;;;;;;;16.43;100.00;101250.97;5023435;28;20615;-73
2023/09/29 03:14:32;;;;;;;13.75;5.03;;;;;;;16.43;100.00;101248.16;5019119;28;20037;-74
2023/09/29 03:16:58;;;;;;;10.98;5.05;;;;;;;16.41;100.00;101257.03;5020199;28;20505;-72
2023/09/29 03:19:24;;;;;;;11.70;4.03;;;;;;;16.46;100.00;101252.97;5016686;28;22223;-72
2023/09/29 03:21:50;;;;;;;10.73;3.65;;;;;;;16.49;100.00;101251.38;5026649;28;20033;-72
2023/09/29 03:24:15;;;;;;;17.95;5.28;;;;;;;16.47;100.00;101265.91;5015410;28;20056;-73
2023/09/29 03:26:41;;;;;;;11.82;5.13;;;;;;;16.46;100.00;101253.78;5023999;28;20045;-72
2023/09/29 03:29:07;;;;;;;11.38;4.78;;;;;;;16.48;100.00;101255.38;5018882;28;20512;-71
2023/09/29 03:31:32;;;;;;;9.80;4.03;;;;;;;16.50;100.00;101255.78;5026623;28;20082;-71
2023/09/29 03:33:57;;;;;;;12.57;4.38;;;;;;;16.51;100.00;101251.72;5012108;28;20038;-73
2023/09/29 03:36:23;;;;;;;11.63;4.30;;;;;;;16.50;100.00;101247.31;5022340;28;20033;-72
2023/09/29 03:38:49;;;;;;;21.90;6.65;;;;;;;16.46;100.00;101236.84;5026205;28;20096;-72
2023/09/29 03:41:14;;;;;;;14.10;4.13;;;;;;;16.51;100.00;101241.25;5023568;28;20029;-72
2023/09/29 03:43:40;;;;;;;14.57;4.28;;;;;;;16.52;100.00;101236.41;5021269;28;20369;-74
2023/09/29 03:46:06;;;;;;;13.57;5.20;;;;;;;16.52;100.00;101227.94;5027449;28;20037;-72
2023/09/29 03:48:32;;;;;;;12.25;4.47;;;;;;;16.51;100.00;101231.94;5026485;28;20032;-73
2023/09/29 03:50:58;;;;;;;12.20;4.70;;;;;;;16.51;100.00;101226.31;5027544;28;20030;-72
2023/09/29 03:53:28;;;;;;;15.43;5.28;;;;;;;16.51;100.00;101226.31;5017761;28;20389;-73
2023/09/29 03:55:54;;;;;;;14.43;5.20;;;;;;;16.54;100.00;101228.31;5019202;28;20033;-73
2023/09/29 03:58:19;;;;;;;14.20;5.15;;;;;;;16.55;100.00;101225.09;5029176;28;20040;-72
2023/09/29 04:00:44;;;;;;;15.55;5.97;;;;;;;16.54;100.00;101231.94;5019602;28;20452;-75
2023/09/29 04:03:10;;;;;;;13.05;5.93;;;;;;;16.58;100.00;101220.63;5021533;28;20486;-74
2023/09/29 04:05:35;;;;;;;12.65;5.13;;;;;;;16.56;100.00;101226.69;5025321;28;20025;-72
2023/09/29 04:08:03;;;;;;;13.73;6.55;;;;;;;16.56;100.00;101223.06;5036229;28;20069;-75
2023/09/29 04:10:29;;;;;;;12.15;5.68;;;;;;;16.60;100.00;101223.84;5034949;28;20423;-75
2023/09/29 04:12:54;;;;;;;11.85;4.75;;;;;;;16.58;100.00;101210.13;5023963;28;20029;-75
2023/09/29 04:15:20;;;;;;;9.75;5.15;;;;;;;16.58;100.00;101212.16;5031279;28;20029;-75
2023/09/29 04:17:45;;;;;;;14.05;5.10;;;;;;;16.61;100.00;101214.16;5021682;28;20584;-76
2023/09/29 04:20:11;;;;;;;13.23;5.57;;;;;;;16.60;100.00;101207.69;5022435;28;20392;-77
2023/09/29 04:22:37;;;;;;;9.07;5.57;;;;;;;16.62;100.00;101204.47;5023756;28;20038;-76
2023/09/29 04:25:02;;;;;;;12.88;6.43;;;;;;;16.61;100.00;101209.31;5020257;28;20048;-77
2023/09/29 04:27:28;;;;;;;14.65;6.30;;;;;;;16.61;100.00;101200.00;5017016;28;20046;-77
2023/09/29 04:29:54;;;;;;;12.25;5.53;;;;;;;16.62;100.00;101216.56;5020059;28;20040;-75
2023/09/29 04:32:19;;;;;;;12.68;6.32;;;;;;;16.64;100.00;101231.09;5026645;28;20044;-75
2023/09/29 04:34:45;;;;;;;11.13;5.20;;;;;;;16.66;100.00;101228.66;5024981;28;20041;-75
2023/09/29 04:37:11;;;;;;;14.32;6.93;;;;;;;16.66;100.00;101239.16;5029341;28;20030;-75
2023/09/29 04:39:37;;;;;;;13.93;5.60;;;;;;;16.69;100.00;101238.31;5017556;28;20685;-75
2023/09/29 04:42:03;;;;;;;13.95;4.57;;;;;;;16.70;100.00;101225.00;5021778;28;20069;-75
2023/09/29 04:44:29;;;;;;;12.32;5.40;;;;;;;16.69;100.00;101220.56;5019689;28;20029;-75
2023/09/29 04:46:54;;;;;;;14.38;6.25;;;;;;;16.67;100.00;101212.50;5017010;28;20029;-75
2023/09/29 04:49:20;;;;;;;9.73;5.90;;;;;;;16.65;100.00;101203.63;5023989;28;20032;-75
2023/09/29 04:51:45;;;;;;;11.88;5.65;;;;;;;16.63;100.00;101197.59;5014007;28;20282;-75
2023/09/29 04:54:10;;;;;;;8.50;5.25;;;;;;;16.61;100.00;101186.72;5017343;28;20081;-75
2023/09/29 04:56:36;;;;;;;11.38;5.85;;;;;;;16.58;100.00;101183.91;5015221;28;20026;-75
2023/09/29 04:59:01;;;;;;;12.25;5.07;;;;;;;16.58;100.00;101200.84;5017108;28;20114;-75
2023/09/29 05:01:27;;;;;;;14.52;5.88;;;;;;;16.57;100.00;101190.75;5016385;28;20021;-74
2023/09/29 05:03:53;;;;;;;13.30;6.10;;;;;;;16.59;100.00;101188.31;5012520;28;20025;-75
2023/09/29 05:06:19;;;;;;;13.00;5.93;;;;;;;16.61;100.00;101185.88;5020643;28;20044;-75
2023/09/29 05:08:44;;;;;;;7.93;4.43;;;;;;;16.57;100.00;101179.44;5009712;28;20033;-75
2023/09/29 05:11:24;;;;;;;11.07;5.65;;;;;;;16.62;100.00;101179.03;5019292;28;20038;-75
2023/09/29 05:13:50;;;;;;;11.85;5.85;;;;;;;16.60;100.00;101179.44;5018273;28;20493;-75
2023/09/29 05:16:16;;;;;;;14.40;5.53;;;;;;;16.60;100.00;101178.63;5029026;28;20144;-75
2023/09/29 05:18:42;;;;;;;9.73;4.90;;;;;;;16.60;100.00;101167.34;5013183;28;20032;-75
2023/09/29 05:21:08;;;;;;;8.55;4.68;;;;;;;16.60;100.00;101170.16;5016664;28;20033;-75
2023/09/29 05:23:33;;;;;;;16.00;5.43;;;;;;;16.60;100.00;101161.69;5022696;28;20029;-75
2023/09/29 05:26:02;;;;;;;10.82;4.80;;;;;;;16.61;100.00;101166.09;5019549;28;20050;-75
2023/09/29 05:28:27;;;;;;;10.25;5.57;;;;;;;16.64;100.00;101156.81;5012859;28;20029;-75
2023/09/29 05:30:54;;;;;;;14.00;5.90;;;;;;;16.64;100.00;101154.78;5019404;28;20397;-75
2023/09/29 05:33:20;;;;;;;13.77;5.03;;;;;;;16.65;100.00;101150.75;5014623;28;20506;-75
2023/09/29 05:35:48;;;;;;;9.57;4.65;;;;;;;16.66;100.00;101149.53;5012873;28;20034;-75
2023/09/29 05:38:13;;;;;;;10.82;4.70;;;;;;;16.69;100.00;101153.53;5014445;28;20053;-71
2023/09/29 05:40:38;;;;;;;10.95;4.50;;;;;;;16.65;100.00;101147.94;5012976;28;20080;-72
2023/09/29 05:43:09;;;;;;;8.32;3.92;;;;;;;16.66;100.00;101160.81;5012219;28;20042;-73
2023/09/29 05:45:35;;;;;;;8.07;3.85;;;;;;;16.67;100.00;101151.16;5011135;28;20112;-73
2023/09/29 05:48:00;;;;;;;8.38;3.70;;;;;;;16.72;100.00;101141.41;5014829;28;20584;-72
2023/09/29 05:50:25;;;;;;;5.70;3.85;;;;;;;16.77;100.00;101143.00;5014708;28;20037;-75
2023/09/29 05:52:51;;;;;;;5.13;3.28;;;;;;;17.12;100.00;101141.13;5012525;28;20029;-76
2023/09/29 05:55:16;;;;;;;8.98;3.50;;;;;;;17.00;100.00;101142.47;5016437;28;20040;-73
2023/09/29 05:57:41;;;;;;;10.55;4.63;;;;;;;16.94;100.00;101144.13;5020025;28;20532;-73
2023/09/29 06:00:07;;;;;;;9.90;4.78;;;;;;;16.86;100.00;101144.19;5019234;28;20065;-73
2023/09/29 06:02:33;;;;;;;6.28;3.50;;;;;;;16.87;100.00;101147.81;5018861;28;20060;-73
2023/09/29 06:04:59;;;;;;;10.15;3.95;;;;;;;16.83;100.00;101147.03;5015159;28;20114;-74
2023/09/29 06:07:25;;;;;;;5.43;3.78;;;;;;;16.87;100.00;101161.94;5015725;28;20033;-73
2023/09/29 06:09:50;;;;;;;7.03;4.55;;;;;;;16.85;100.00;101153.88;5020896;28;20025;-73
2023/09/29 06:12:15;;;;;;;8.45;4.03;;;;;;;16.89;100.00;101144.53;5019544;28;20109;-74
2023/09/29 06:14:41;;;;;;;7.95;3.78;;;;;;;16.98;100.00;101147.72;5016181;28;20394;-75
2023/09/29 06:17:06;;;;;;;7.43;3.95;;;;;;;16.95;100.00;101154.19;5021324;28;20124;-73
2023/09/29 06:19:31;;;;;;;7.18;3.72;;;;;;;16.95;100.00;101142.88;5015735;28;20113;-73
2023/09/29 06:21:57;;;;;;;8.48;4.03;;;;;;;16.98;100.00;101147.72;5012051;28;20060;-72
2023/09/29 06:24:22;;;;;;;8.13;4.03;;;;;;;16.99;100.00;101154.97;5014939;28;20037;-72
2023/09/29 06:26:48;;;;;;;8.13;3.80;;;;;;;17.03;100.00;101150.91;5015247;28;20041;-71
2023/09/29 06:29:13;;;;;;;9.55;4.07;;;;;;;17.04;100.00;101149.69;5019486;28;20041;-76
2023/09/29 06:31:38;;;;;;;10.20;3.88;;;;;;;17.05;100.00;101153.31;5021869;28;20111;-76
2023/09/29 06:34:04;;;;;;;5.13;3.53;;;;;;;17.02;100.00;101166.25;5020880;28;20040;-77
2023/09/29 06:36:29;;;;;;;13.32;4.40;;;;;;;17.06;100.00;101171.91;5015901;28;20493;-76
2023/09/29 06:38:56;;;;;;;10.77;4.28;;;;;;;17.11;100.00;101165.78;5018221;28;20033;-76
2023/09/29 06:41:23;;;;;;;8.60;4.57;;;;;;;17.10;100.00;101180.34;5017712;28;20041;-76
2023/09/29 06:43:49;;;;;;;4.85;3.40;;;;;;;17.06;100.00;101169.06;5022645;28;20025;-76
2023/09/29 06:46:15;;;;;;;10.02;3.40;;;;;;;17.09;100.00;101182.38;5024404;28;20021;-77
2023/09/29 06:48:42;;;;;;;11.00;4.22;;;;;;;17.10;100.00;101181.16;5023083;28;20060;-73
2023/09/29 06:51:07;;;;;;;7.85;4.43;;;;;;;17.12;100.00;101172.25;5024395;28;20057;-72
2023/09/29 06:53:33;;;;;;;8.00;4.28;;;;;;;17.15;100.00;101163.75;5021688;28;20061;-72
2023/09/29 06:55:59;;;;;;;6.75;3.63;;;;;;;17.12;100.00;101163.75;5019415;28;20080;-72
2023/09/29 06:58:24;;;;;;;7.60;2.88;;;;;;;17.13;100.00;101188.81;5015165;28;20397;-72
2023/09/29 07:00:51;;;;;;;8.93;4.20;;;;;;;17.11;100.00;101184.78;5015620;28;20469;-72
2023/09/29 07:03:17;;;;;;;12.88;3.83;;;;;;;17.14;100.00;101179.13;5015593;28;20516;-72
2023/09/29 07:05:43;;;;;;;6.38;3.80;;;;;;;17.12;100.00;101181.56;5013687;28;20022;-73
2023/09/29 07:08:08;;;;;;;6.50;3.70;;;;;;;17.15;100.00;101189.19;5014384;28;20060;-72
2023/09/29 07:10:33;;;;;;;6.95;3.75;;;;;;;17.07;100.00;101179.94;5017607;28;20484;-72
2023/09/29 07:12:59;;;;;;;12.85;3.70;;;;;;;17.16;100.00;101187.16;5014276;28;20037;-75
2023/09/29 07:15:25;;;;;;;6.63;3.45;;;;;;;17.13;100.00;101183.16;5012971;28;20084;-72
2023/09/29 07:17:50;;;;;;;12.25;4.72;;;;;;;17.07;100.00;101171.47;5016300;28;20029;-72
2023/09/29 07:20:15;;;;;;;8.32;3.92;;;;;;;17.16;100.00;101182.34;5011137;28;20117;-72
2023/09/29 07:22:41;;;;;;;6.82;3.55;;;;;;;17.12;100.00;101175.91;5015789;28;20034;-72
2023/09/29 07:25:06;;;;;;;9.80;4.00;;;;;;;17.14;100.00;101176.28;5015267;28;20036;-73
2023/09/29 07:27:32;;;;;;;4.70;3.45;;;;;;;17.17;100.00;101169.00;5017160;28;20029;-73
2023/09/29 07:29:57;;;;;;;13.73;4.35;;;;;;;17.22;100.00;101186.31;5016807;28;20091;-73
2023/09/29 07:32:26;;;;;;;10.32;4.65;;;;;;;17.20;100.00;101183.09;5014486;28;20021;-73
2023/09/29 07:34:51;;;;;;;8.00;3.53;;;;;;;17.20;100.00;101183.09;5022850;28;20033;-73
2023/09/29 07:37:16;;;;;;;8.30;3.75;;;;;;;17.28;100.00;101178.97;5019642;28;20438;-75
2023/09/29 07:39:42;;;;;;;7.47;4.43;;;;;;;17.37;100.00;101183.34;5011134;28;20060;-73
2023/09/29 07:42:07;;;;;;;11.23;4.45;;;;;;;17.47;100.00;101185.28;5014841;28;20026;-73
2023/09/29 07:44:34;;;;;;;6.00;3.10;;;;;;;17.40;100.00;101183.34;5010570;28;20053;-72
2023/09/29 07:46:59;;;;;;;9.35;3.83;;;;;;;17.48;100.00;101192.56;5011786;28;20048;-71
2023/09/29 07:49:26;;;;;;;6.38;3.50;;;;;;;17.50;100.00;101192.97;5013410;28;20033;-75
2023/09/29 07:51:51;;;;;;;9.93;4.57;;;;;;;17.52;100.00;101190.50;5016107;28;20021;-72
2023/09/29 07:54:18;;;;;;;7.95;4.68;;;;;;;17.62;100.00;101197.28;5021010;28;20501;-72
2023/09/29 07:56:47;;;;;;;6.38;3.55;;;;;;;17.66;100.00;101198.03;5016793;28;20401;-73
2023/09/29 07:59:14;;;;;;;5.03;3.58;;;;;;;17.68;100.00;101193.56;5016062;28;20052;-77
2023/09/29 08:01:42;;;;;;;9.82;4.57;;;;;;;17.71;100.00;101202.44;5008151;28;20034;-77
2023/09/29 08:04:07;;;;;;;7.95;3.85;;;;;;;17.76;100.00;101196.34;5011652;28;20052;-76
2023/09/29 08:06:33;;;;;;;6.63;3.72;;;;;;;17.88;100.00;101204.34;5019105;28;20493;-76
2023/09/29 08:09:00;;;;;;;5.72;4.38;;;;;;;17.91;100.00;101199.84;5019272;28;20472;-77
2023/09/29 08:11:25;;;;;;;6.43;4.30;;;;;;;17.96;100.00;101205.88;5019317;28;20033;-77
2023/09/29 08:13:53;;;;;;;7.22;4.00;;;;;;;18.01;100.00;101202.56;5019889;28;20440;-76
2023/09/29 08:16:19;;;;;;;5.93;4.05;;;;;;;18.11;100.00;101209.34;5031314;28;20041;-77
2023/09/29 08:18:45;;;;;;;8.38;3.92;;;;;;;18.15;100.00;101203.63;5021483;28;20029;-76
2023/09/29 08:21:10;;;;;;;6.55;3.88;;;;;;;18.38;100.00;101202.94;5012002;28;20041;-76
2023/09/29 08:23:36;;;;;;;6.63;3.50;;;;;;;18.42;100.00;101204.50;5019812;28;20033;-77
2023/09/29 08:26:01;;;;;;;9.35;5.38;;;;;;;18.53;100.00;101209.22;5015870;28;20085;-77
2023/09/29 08:28:26;;;;;;;9.50;4.20;;;;;;;18.57;100.00;101209.97;5016599;28;20121;-77
2023/09/29 08:30:52;;;;;;;6.63;4.20;;;;;;;18.64;100.00;101210.69;5019157;28;20029;-77
2023/09/29 08:33:17;;;;;;;9.02;3.95;;;;;;;18.53;100.00;101209.22;5017858;28;20677;-77
2023/09/29 08:35:42;;;;;;;6.65;3.90;;;;;;;18.47;100.00;101206.88;5017922;28;20034;-77
2023/09/29 08:38:09;;;;;;;6.32;3.83;;;;;;;18.57;100.00;101215.66;5014621;28;20104;-76
2023/09/29 08:40:39;;;;;;;5.97;3.80;;;;;;;18.59;100.00;101208.31;5017227;28;20418;-75
2023/09/29 08:43:06;;;;;;;6.90;3.42;;;;;;;18.78;100.00;101218.22;5028135;28;20053;-77
2023/09/29 08:45:32;;;;;;;4.88;3.10;;;;;;;18.79;100.00;101219.84;5019747;28;20037;-76
2023/09/29 08:47:59;;;;;;;7.25;4.10;;;;;;;18.78;100.00;101215.38;5018538;28;20037;-75
2023/09/29 08:50:25;;;;;;;10.43;3.78;;;;;;;18.78;100.00;101215.38;5021996;28;20036;-74
2023/09/29 08:52:52;;;;;;;8.90;3.42;;;;;;;18.70;100.00;101213.88;5016490;28;20783;-71
2023/09/29 08:55:17;;;;;;;9.70;4.00;;;;;;;18.72;100.00;101217.09;5017544;28;20044;-72
2023/09/29 08:57:43;;;;;;;5.90;4.18;;;;;;;18.72;100.00;101221.94;5023629;28;20029;-72
2023/09/29 09:00:13;;;;;;;15.70;5.38;;;;;;;18.88;100.00;101227.81;5021828;28;20099;-72
2023/09/29 09:02:43;;;;;;;8.85;3.83;;;;;;;18.83;100.00;101220.59;5023141;28;20033;-73
2023/09/29 09:05:10;;;;;;;6.78;3.20;;;;;;;18.82;100.00;101216.13;5027988;28;20052;-75
2023/09/29 09:07:37;;;;;;;5.75;3.08;;;;;;;18.88;100.00;101224.97;5022680;28;20025;-73
2023/09/29 09:10:03;;;;;;;8.23;2.90;;;;;;;18.99;100.00;101227.66;5016911;28;20052;-76
2023/09/29 09:12:36;;;;;;;6.55;3.53;;;;;;;19.02;100.00;101218.31;5024080;28;20028;-75
2023/09/29 09:15:05;;;;;;;9.05;3.40;;;;;;;19.08;100.00;101230.78;5021483;28;20041;-75
2023/09/29 09:17:32;;;;;;;6.80;2.63;;;;;;;19.05;100.00;101231.63;5026671;28;20025;-75
2023/09/29 09:19:57;;;;;;;8.93;2.88;;;;;;;19.21;100.00;101228.94;5022677;28;20490;-76
2023/09/29 09:22:32;;;;;;;10.40;4.22;;;;;;;19.32;100.00;101236.50;5022430;28;20053;-76
2023/09/29 09:25:01;;;;;;;3.97;3.05;;;;;;;19.32;100.00;101236.50;5024479;28;20095;-76
2023/09/29 09:27:39;;;;;;;7.15;3.28;;;;;;;19.18;100.00;101232.63;5019721;28;20549;-77
2023/09/29 09:30:05;;;;;;;9.85;3.30;;;;;;;19.14;100.00;101236.75;5019560;28;20059;-76
2023/09/29 09:32:31;;;;;;;4.68;2.42;;;;;;;19.16;100.00;101226.56;5016505;28;20163;-75
2023/09/29 09:34:58;;;;;;;3.70;3.13;;;;;;;19.23;100.00;101240.66;5014179;28;20028;-75
2023/09/29 09:37:27;;;;;;;7.65;3.20;;;;;;;19.15;100.00;101233.50;5012944;28;20100;-75
2023/09/29 09:39:59;;;;;;;7.15;3.35;;;;;;;19.22;100.00;101236.22;5022134;28;20025;-76
2023/09/29 09:42:25;;;;;;;6.57;3.23;;;;;;;19.17;100.00;101233.88;5024570;28;20489;-75
2023/09/29 09:44:56;;;;;;;6.72;2.83;;;;;;;19.35;100.00;101236.41;5027379;28;20424;-76
2023/09/29 09:47:25;;;;;;;8.05;3.05;;;;;;;19.39;100.00;101233.53;5014914;28;20054;-75
2023/09/29 09:49:55;;;;;;;5.03;2.80;;;;;;;19.33;100.00;101233.19;5016458;28;20520;-75
2023/09/29 09:52:29;;;;;;;3.25;2.55;;;;;;;19.41;100.00;101233.91;5020934;28;20411;-74
2023/09/29 09:54:57;;;;;;;4.28;3.30;;;;;;;19.52;100.00;101228.84;5020853;28;20080;-74
2023/09/29 09:57:35;;;;;;;6.28;2.97;;;;;;;19.47;100.00;101232.19;5017724;28;20393;-74
2023/09/29 10:00:07;;;;;;;7.80;3.05;;;;;;;19.54;100.00;101234.88;5021974;28;20045;-77
2023/09/29 10:02:35;;;;;;;;;;;;;;;19.78;100.00;101240.63;5022144;28;20033;-76
2023/09/29 10:05:03;;;;;;;7.63;3.42;;;;;;;19.86;100.00;101242.88;5024073;28;19921;-77
2023/09/29 10:07:28;;;;;;;5.07;3.47;;;;;;;19.90;100.00;101242.81;5026162;28;20060;-77
2023/09/29 10:09:53;;;;;;;8.65;3.25;;;;;;;19.96;100.00;101243.91;5022670;28;20503;-76
2023/09/29 10:12:37;;;;;;;9.65;3.75;;;;;;;19.97;100.00;101248.38;5022717;28;20544;-76
2023/09/29 10:15:14;;;;;;;6.97;3.22;;;;;;;19.89;100.00;101249.72;5023909;28;20129;-76
2023/09/29 10:17:39;;;;;;;5.32;3.63;;;;;;;19.90;100.00;101254.16;5030027;28;20113;-76
2023/09/29 10:20:05;;;;;;;11.18;3.90;;;;;;;19.97;100.00;101251.22;5021543;28;20529;-76
2023/09/29 10:22:31;;;;;;;5.53;2.92;;;;;;;19.93;100.00;101252.53;5021010;28;20397;-76
2023/09/29 10:24:57;;;;;;;7.65;4.43;;;;;;;19.93;100.00;101256.16;5021209;28;20025;-77
2023/09/29 10:27:33;;;;;;;6.95;3.30;;;;;;;19.75;100.00;101258.50;5017965;28;20481;-76
2023/09/29 10:30:18;;;;;;;5.93;3.65;;;;;;;19.87;100.00;101249.38;5023501;28;20112;-77
2023/09/29 10:32:48;;;;;;;6.10;3.35;;;;;;;19.91;100.00;101250.09;5016459;28;20427;-77
2023/09/29 10:35:22;;;;;;;5.50;3.17;;;;;;;19.99;100.00;101254.41;5023245;28;20499;-77
2023/09/29 10:37:54;;;;;;;8.95;3.72;;;;;;;20.15;100.00;101256.53;5021386;28;20044;-75
2023/09/29 10:40:31;;;;;;;;;;;;;;;20.20;100.00;101261.72;5026130;28;20037;-75
2023/09/29 10:43:01;;;;;;;4.68;3.75;;;;;;;20.38;100.00;101264.22;5026841;28;19923;-76
2023/09/29 10:45:36;;;;;;;8.40;4.45;;;;;;;20.58;100.00;101269.16;5013985;28;20429;-75
2023/09/29 10:48:09;;;;;;;7.30;3.90;;;;;;;20.58;100.00;101261.41;5014491;28;20084;-74
2023/09/29 10:50:38;;;;;;;;;;;;;;;20.56;100.00;101271.59;5025702;28;20035;-75
2023/09/29 10:53:03;;;;;;;7.30;3.40;;;;;;;20.68;100.00;101265.25;5024135;28;19913;-75
2023/09/29 10:55:30;;;;;;;5.38;3.78;;;;;;;20.78;100.00;101278.44;5010596;28;20021;-75
2023/09/29 10:57:58;;;;;;;7.70;3.35;;;;;;;20.63;100.00;101271.47;5029934;28;20029;-75
2023/09/29 11:00:24;;;;;;;8.73;4.07;;;;;;;20.57;100.00;101273.19;5024239;28;20088;-75
2023/09/29 11:02:52;;;;;;;5.68;3.17;;;;;;;20.67;100.00;101278.69;5021199;28;20030;-74
2023/09/29 11:05:19;;;;;;;7.55;3.65;;;;;;;20.63;100.00;101271.47;5025405;28;20033;-74
2023/09/29 11:07:51;;;;;;;6.63;3.45;;;;;;;20.67;100.00;101267.31;5028586;28;20040;-76
2023/09/29 11:10:18;;;;;;;5.43;3.65;;;;;;;20.56;100.00;101272.41;5019918;28;20109;-75
2023/09/29 11:12:48;;;;;;;6.45;3.63;;;;;;;20.44;100.00;101271.00;5022039;28;20029;-75
2023/09/29 11:15:15;;;;;;;4.55;3.25;;;;;;;20.33;100.00;101270.41;5016071;28;20850;-75